createdAt,value
2024-01-11T00:00:56.563Z,101026.60
2024-01-11T00:06:13.013Z,101037.00
2024-01-11T00:11:17.524Z,101035.60
2024-01-11T00:16:20.003Z,101022.20
2024-01-11T00:21:21.465Z,101015.00
2024-01-11T00:26:23.032Z,101041.00
2024-01-11T00:31:24.635Z,101018.60
2024-01-11T00:36:26.146Z,101028.20
2024-01-11T00:41:27.725Z,101034.40
2024-01-11T00:46:29.306Z,101047.40
2024-01-11T00:51:30.771Z,101054.60
2024-01-11T00:56:32.327Z,101046.60
2024-01-11T01:01:33.888Z,101025.80
2024-01-11T01:06:35.466Z,101019.80
2024-01-11T01:11:37.082Z,101010.40
2024-01-11T01:16:38.640Z,100976.20
2024-01-11T01:21:40.396Z,100973.20
2024-01-11T01:26:42.339Z,100997.80
2024-01-11T01:31:44.054Z,101016.20
2024-01-11T01:36:45.601Z,100994.20
2024-01-11T01:41:47.162Z,100978.00
2024-01-11T01:46:49.681Z,100939.60
2024-01-11T01:51:54.223Z,100955.40
2024-01-11T01:56:56.574Z,100944.80
2024-01-11T02:01:59.149Z,100920.20
2024-01-11T02:07:02.158Z,100920.80
2024-01-11T02:12:05.511Z,100914.00
2024-01-11T02:17:07.051Z,100910.20
2024-01-11T02:22:34.350Z,100895.00
2024-01-11T02:27:50.157Z,100904.60
2024-01-11T02:32:52.263Z,100910.40
2024-01-11T02:37:54.947Z,100910.00
2024-01-11T02:42:56.469Z,100913.00
2024-01-11T02:47:58.165Z,100897.40
2024-01-11T02:53:00.012Z,100885.20
2024-01-11T02:58:01.532Z,100892.20
2024-01-11T03:03:03.513Z,100878.40
2024-01-11T03:08:05.480Z,100852.60
2024-01-11T03:13:08.018Z,100861.80
2024-01-11T03:18:10.257Z,100861.40
2024-01-11T03:23:12.003Z,100863.00
2024-01-11T03:28:13.832Z,100841.00
2024-01-11T03:33:15.457Z,100831.00
2024-01-11T03:38:17.114Z,100834.80
2024-01-11T03:43:19.084Z,100857.40
2024-01-11T03:48:20.673Z,100839.40
2024-01-11T03:53:22.260Z,100839.00
2024-01-11T03:58:23.822Z,100847.80
2024-01-11T04:03:25.346Z,100837.60
2024-01-11T04:08:26.924Z,100819.20
2024-01-11T04:13:28.421Z,100818.00
2024-01-11T04:18:30.066Z,100808.00
2024-01-11T04:23:31.721Z,100790.80
2024-01-11T04:28:33.268Z,100796.00
2024-01-11T04:33:34.855Z,100787.40
2024-01-11T04:38:40.353Z,100788.00
2024-01-11T04:43:44.468Z,100782.20
2024-01-11T04:48:47.921Z,100790.40
2024-01-11T04:53:49.717Z,100767.60
2024-01-11T04:58:51.196Z,100749.80
2024-01-11T05:03:52.705Z,100750.60
2024-01-11T05:08:54.336Z,100738.60
2024-01-11T05:13:55.959Z,100733.60
2024-01-11T05:18:58.934Z,100735.40
2024-01-11T05:24:01.240Z,100727.40
2024-01-11T05:29:05.079Z,100735.80
2024-01-11T05:34:06.728Z,100739.60
2024-01-11T05:39:08.393Z,100731.60
2024-01-11T05:44:10.054Z,100725.00
2024-01-11T05:49:11.682Z,100732.40
2024-01-11T05:54:13.416Z,100722.60
2024-01-11T05:59:14.974Z,100715.40
2024-01-11T06:04:16.986Z,100736.80
2024-01-11T06:09:18.565Z,100735.40
2024-01-11T06:14:20.701Z,100715.80
2024-01-11T06:19:23.643Z,100712.80
2024-01-11T06:24:25.158Z,100722.80
2024-01-11T06:29:27.088Z,100713.40
2024-01-11T06:34:28.928Z,100722.80
2024-01-11T06:39:30.420Z,100717.80
2024-01-11T06:44:34.736Z,100715.00
2024-01-11T06:49:40.478Z,100718.00
2024-01-11T06:54:42.639Z,100707.40
2024-01-11T06:59:46.798Z,100707.60
2024-01-11T07:04:48.370Z,100714.20
2024-01-11T07:09:50.101Z,100705.40
2024-01-11T07:14:52.243Z,100712.40
2024-01-11T07:19:54.005Z,100710.20
2024-01-11T07:24:55.506Z,100714.40
2024-01-11T07:29:57.057Z,100701.80
2024-01-11T07:34:58.665Z,100700.40
2024-01-11T07:40:00.226Z,100703.60
2024-01-11T07:45:01.968Z,100700.40
2024-01-11T07:50:10.128Z,100708.20
2024-01-11T07:55:13.090Z,100700.60
2024-01-11T08:00:15.088Z,100691.20
2024-01-11T08:05:16.795Z,100698.60
2024-01-11T08:10:18.446Z,100684.40
2024-01-11T08:15:20.005Z,100674.20
2024-01-11T08:20:21.717Z,100671.00
2024-01-11T08:25:23.325Z,100672.20
2024-01-11T08:30:24.887Z,100676.40
2024-01-11T08:35:26.828Z,100696.80
2024-01-11T08:40:28.402Z,100691.40
2024-01-11T08:45:30.238Z,100704.20
2024-01-11T08:50:33.261Z,100699.00
2024-01-11T08:55:34.861Z,100699.20
2024-01-11T09:00:38.350Z,100690.80
2024-01-11T09:05:40.538Z,100707.00
2024-01-11T09:10:42.208Z,100699.40
2024-01-11T09:15:43.716Z,100704.40
2024-01-11T09:20:45.226Z,100694.40
2024-01-11T09:25:46.861Z,100693.00
2024-01-11T09:30:48.459Z,100687.60
2024-01-11T09:35:50.043Z,100684.00
2024-01-11T09:41:11.926Z,100681.60
2024-01-11T09:46:16.948Z,100680.80
2024-01-11T09:51:18.529Z,100686.40
2024-01-11T09:56:20.259Z,100696.00
2024-01-11T10:01:22.742Z,100680.60
2024-01-11T10:06:26.841Z,100678.00
2024-01-11T10:11:28.438Z,100685.00
2024-01-11T10:16:30.490Z,100682.60
2024-01-11T10:21:32.400Z,100672.40
2024-01-11T10:26:34.245Z,100672.60
2024-01-11T10:31:35.887Z,100675.60
2024-01-11T10:36:37.735Z,100677.80
2024-01-11T10:41:48.726Z,100660.60
2024-01-11T10:46:51.237Z,100664.00
2024-01-11T10:52:08.389Z,100661.20
2024-01-11T10:57:12.600Z,100652.20
2024-01-11T11:02:16.375Z,100644.20
2024-01-11T11:07:19.315Z,100648.60
2024-01-11T11:12:22.456Z,100638.20
2024-01-11T11:17:24.593Z,100649.20
2024-01-11T11:22:27.979Z,100646.20
2024-01-11T11:27:30.839Z,100635.20
2024-01-11T11:32:42.766Z,100629.20
2024-01-11T11:37:44.771Z,100633.40
2024-01-11T11:42:46.868Z,100633.60
2024-01-11T11:47:48.523Z,100616.20
2024-01-11T11:52:57.596Z,100620.00
2024-01-11T11:57:59.095Z,100623.60
2024-01-11T12:03:04.359Z,100633.00
2024-01-11T12:08:06.524Z,100636.00
2024-01-11T12:13:08.170Z,100627.60
2024-01-11T12:18:10.529Z,100631.80
2024-01-11T12:23:15.040Z,100630.00
2024-01-11T12:28:17.516Z,100620.60
2024-01-11T12:33:20.130Z,100611.00
2024-01-11T12:38:22.420Z,100612.40
2024-01-11T12:43:24.667Z,100611.40
2024-01-11T12:48:26.636Z,100597.80
2024-01-11T12:53:29.380Z,100597.80
2024-01-11T12:58:30.973Z,100602.20
2024-01-11T13:03:32.632Z,100598.00
2024-01-11T13:08:40.417Z,100599.40
2024-01-11T13:13:42.022Z,100597.00
2024-01-11T13:18:43.854Z,100606.00
2024-01-11T13:23:45.648Z,100606.80
2024-01-11T13:28:47.264Z,100598.60
2024-01-11T13:33:49.516Z,100599.40
2024-01-11T13:38:52.032Z,100589.20
2024-01-11T13:43:54.866Z,100595.40
2024-01-11T13:48:56.499Z,100606.60
2024-01-11T13:54:02.028Z,100612.40
2024-01-11T13:59:04.327Z,100614.20
2024-01-11T14:04:07.667Z,100608.60
2024-01-11T14:09:36.602Z,100607.80
2024-01-11T14:14:38.943Z,100601.80
2024-01-11T14:19:40.671Z,100601.20
2024-01-11T14:24:42.461Z,100618.40
2024-01-11T14:29:44.163Z,100613.80
2024-01-11T14:34:45.768Z,100605.80
2024-01-11T14:39:49.876Z,100610.80
2024-01-11T14:44:51.843Z,100633.60
2024-01-11T14:49:53.562Z,100651.20
2024-01-11T14:54:56.049Z,100674.20
2024-01-11T15:00:00.691Z,100674.00
2024-01-11T15:05:04.494Z,100677.00
2024-01-11T15:10:07.123Z,100692.60
2024-01-11T15:15:11.656Z,100707.40
2024-01-11T15:20:20.035Z,100714.00
2024-01-11T15:25:21.658Z,100718.80
2024-01-11T15:30:23.965Z,100715.00
2024-01-11T15:35:28.712Z,100718.80
2024-01-11T15:40:31.794Z,100724.20
2024-01-11T15:45:34.848Z,100743.40
2024-01-11T15:50:38.242Z,100741.20
2024-01-11T15:55:40.357Z,100754.80
2024-01-11T16:00:45.624Z,100765.40
2024-01-11T16:05:47.574Z,100779.60
2024-01-11T16:10:49.699Z,100776.00
2024-01-11T16:15:57.210Z,100781.20
2024-01-11T16:20:58.976Z,100791.20
2024-01-11T16:26:01.224Z,100798.00
2024-01-11T16:31:04.297Z,100815.00
2024-01-11T16:36:07.259Z,100818.20
2024-01-11T16:41:11.772Z,100821.80
2024-01-11T16:46:25.614Z,100814.40
2024-01-11T16:51:29.079Z,100826.00
2024-01-11T16:56:31.125Z,100826.80
2024-01-11T17:01:33.222Z,100833.80
2024-01-11T17:06:35.695Z,100833.80
2024-01-11T17:11:45.510Z,100851.80
2024-01-11T17:16:48.065Z,100848.40
2024-01-11T17:21:49.815Z,100855.40
2024-01-11T17:26:51.782Z,100861.80
2024-01-11T17:31:53.828Z,100860.80
2024-01-11T17:36:55.348Z,100862.00
2024-01-11T17:42:00.120Z,100870.60
2024-01-11T17:47:01.734Z,100877.40
2024-01-11T17:52:04.898Z,100875.80
2024-01-11T17:57:07.985Z,100862.60
2024-01-11T18:02:09.918Z,100865.60
2024-01-11T18:07:11.603Z,100863.20
2024-01-11T18:12:16.138Z,100870.80
2024-01-11T18:17:18.077Z,100879.00
2024-01-11T18:22:30.171Z,100885.00
2024-01-11T18:27:35.908Z,100885.40
2024-01-11T18:32:40.190Z,100897.20
2024-01-11T18:37:42.322Z,100892.00
2024-01-11T18:42:44.059Z,100909.40
2024-01-11T18:47:50.019Z,100916.60
2024-01-11T18:52:52.332Z,100921.20
2024-01-11T18:57:55.651Z,100928.80
2024-01-11T19:02:59.044Z,100930.80
2024-01-11T19:08:00.892Z,100940.40
2024-01-11T19:13:02.712Z,100951.80
2024-01-11T19:18:11.233Z,100947.60
2024-01-11T19:23:13.733Z,100952.60
2024-01-11T19:28:15.583Z,100947.40
2024-01-11T19:33:20.361Z,100959.20
2024-01-11T19:38:22.234Z,100965.00
2024-01-11T19:43:26.554Z,100972.00
2024-01-11T19:48:28.322Z,100974.40
2024-01-11T19:53:30.227Z,100983.60
2024-01-11T19:58:37.013Z,100984.60
2024-01-11T20:03:42.089Z,100984.40
2024-01-11T20:08:44.150Z,100993.80
2024-01-11T20:13:48.899Z,101008.20
2024-01-11T20:18:50.794Z,101013.60
2024-01-11T20:23:52.698Z,101035.00
2024-01-11T20:28:54.455Z,101034.40
2024-01-11T20:33:56.721Z,101038.00
2024-01-11T20:38:58.860Z,101049.20
2024-01-11T20:44:11.269Z,101054.00
2024-01-11T20:49:15.664Z,101067.40
2024-01-11T20:54:19.586Z,101071.80
2024-01-11T20:59:21.397Z,101078.00
2024-01-11T21:04:25.202Z,101079.40
2024-01-11T21:09:26.997Z,101098.40
2024-01-11T21:14:36.368Z,101093.00
2024-01-11T21:19:52.185Z,101100.40
2024-01-11T21:24:57.383Z,101112.20
2024-01-11T21:30:08.525Z,101123.40
2024-01-11T21:35:11.585Z,101130.80
2024-01-11T21:40:20.752Z,101126.80
2024-01-11T21:45:26.815Z,101139.20
2024-01-11T21:50:31.175Z,101157.20
2024-01-11T21:55:33.244Z,101164.40
2024-01-11T22:00:37.846Z,101169.60
2024-01-11T22:05:40.256Z,101168.80
2024-01-11T22:10:54.875Z,101168.80
2024-01-11T22:16:20.103Z,101165.20
2024-01-11T22:21:22.659Z,101169.60
2024-01-11T22:26:29.373Z,101181.20
2024-01-11T22:31:40.610Z,101187.40
2024-01-11T22:36:50.136Z,101190.40
2024-01-11T22:42:05.088Z,101194.80
2024-01-11T22:47:22.187Z,101190.20
2024-01-11T22:52:27.098Z,101208.20
2024-01-11T22:57:32.167Z,101222.60
2024-01-11T23:02:49.656Z,101243.00
2024-01-11T23:08:02.302Z,101230.00
2024-01-11T23:13:13.373Z,101225.60
2024-01-11T23:18:36.475Z,101213.80
2024-01-11T23:23:57.615Z,101211.80
2024-01-11T23:28:59.721Z,101207.20
2024-01-11T23:34:16.793Z,101208.40
2024-01-11T23:39:26.797Z,101208.00
2024-01-11T23:44:40.122Z,101213.20
2024-01-11T23:49:53.261Z,101219.40
2024-01-11T23:55:17.117Z,101237.00
